createdAt,value
2023-11-30T00:00:12.601Z,5.65
2023-11-30T00:02:39.128Z,5.63
2023-11-30T00:05:08.307Z,5.57
2023-11-30T00:07:34.948Z,5.55
2023-11-30T00:10:01.791Z,5.53
2023-11-30T00:12:28.384Z,5.62
2023-11-30T00:14:55.046Z,5.69
2023-11-30T00:17:21.600Z,5.73
2023-11-30T00:19:48.161Z,5.76
2023-11-30T00:22:14.676Z,5.69
2023-11-30T00:24:41.105Z,5.68
2023-11-30T00:27:07.602Z,5.67
2023-11-30T00:29:34.104Z,5.75
2023-11-30T00:32:00.539Z,5.81
2023-11-30T00:34:26.985Z,5.91
2023-11-30T00:36:53.460Z,5.96
2023-11-30T00:39:19.939Z,5.91
2023-11-30T00:41:46.503Z,5.88
2023-11-30T00:44:13.045Z,5.87
2023-11-30T00:46:39.526Z,5.86
2023-11-30T00:49:06.071Z,5.87
2023-11-30T00:51:32.707Z,5.84
2023-11-30T00:53:59.274Z,5.84
2023-11-30T00:56:25.803Z,5.88
2023-11-30T00:58:52.387Z,5.96
2023-11-30T01:01:18.937Z,5.95
2023-11-30T01:03:45.510Z,5.87
2023-11-30T01:06:12.177Z,5.84
2023-11-30T01:08:38.649Z,5.86
2023-11-30T01:11:05.338Z,5.86
2023-11-30T01:13:31.776Z,5.89
2023-11-30T01:15:58.247Z,5.95
2023-11-30T01:18:24.997Z,5.98
2023-11-30T01:20:51.573Z,5.97
2023-11-30T01:23:18.090Z,5.95
2023-11-30T01:25:44.610Z,5.85
2023-11-30T01:28:11.057Z,5.77
2023-11-30T01:30:37.510Z,5.74
2023-11-30T01:33:04.186Z,5.73
2023-11-30T01:35:30.770Z,5.63
2023-11-30T01:37:57.497Z,5.59
2023-11-30T01:40:24.230Z,5.56
2023-11-30T01:42:51.444Z,5.57
2023-11-30T01:45:18.066Z,5.63
2023-11-30T01:47:45.627Z,5.69
2023-11-30T01:50:12.934Z,5.71
2023-11-30T01:52:39.707Z,5.76
2023-11-30T01:55:08.420Z,5.75
2023-11-30T01:57:35.865Z,5.79
2023-11-30T02:00:03.356Z,5.79
2023-11-30T02:02:30.013Z,5.83
2023-11-30T02:04:56.501Z,5.87
2023-11-30T02:07:22.916Z,5.87
2023-11-30T02:09:49.512Z,5.82
2023-11-30T02:12:16.010Z,5.80
2023-11-30T02:14:42.434Z,5.79
2023-11-30T02:17:08.899Z,5.78
2023-11-30T02:19:35.460Z,5.74
2023-11-30T02:22:02.029Z,5.75
2023-11-30T02:24:28.541Z,5.73
2023-11-30T02:26:55.046Z,5.67
2023-11-30T02:29:21.697Z,5.56
2023-11-30T02:31:48.369Z,5.50
2023-11-30T02:34:14.842Z,5.55
2023-11-30T02:36:41.321Z,5.61
2023-11-30T02:39:07.830Z,5.62
2023-11-30T02:41:34.301Z,5.60
2023-11-30T02:44:00.745Z,5.64
2023-11-30T02:46:27.426Z,5.54
2023-11-30T02:48:53.955Z,5.51
2023-11-30T02:51:20.466Z,5.48
2023-11-30T02:53:46.998Z,5.38
2023-11-30T02:56:13.502Z,5.36
2023-11-30T02:58:39.964Z,5.44
2023-11-30T03:01:06.598Z,5.34
2023-11-30T03:03:33.181Z,5.30
2023-11-30T03:05:59.725Z,5.21
2023-11-30T03:08:26.225Z,5.22
2023-11-30T03:10:52.648Z,5.20
2023-11-30T03:13:19.082Z,5.08
2023-11-30T03:15:47.152Z,4.95
2023-11-30T03:18:13.928Z,4.98
2023-11-30T03:20:40.520Z,4.99
2023-11-30T03:23:07.066Z,5.05
2023-11-30T03:25:37.154Z,4.94
2023-11-30T03:28:03.941Z,4.88
2023-11-30T03:30:30.623Z,4.90
2023-11-30T03:32:57.614Z,4.98
2023-11-30T03:35:24.151Z,4.94
2023-11-30T03:37:51.046Z,4.99
2023-11-30T03:40:17.606Z,5.00
2023-11-30T03:42:44.057Z,4.96
2023-11-30T03:45:10.690Z,4.94
2023-11-30T03:47:37.338Z,4.90
2023-11-30T03:50:04.026Z,4.92
2023-11-30T03:52:30.578Z,5.02
2023-11-30T03:54:57.018Z,4.95
2023-11-30T03:57:23.572Z,4.93
2023-11-30T03:59:50.201Z,4.99
2023-11-30T04:02:17.102Z,4.95
2023-11-30T04:04:43.701Z,4.88
2023-11-30T04:07:10.438Z,4.85
2023-11-30T04:09:38.605Z,4.78
2023-11-30T04:12:05.414Z,4.69
2023-11-30T04:14:31.955Z,4.72
2023-11-30T04:17:00.784Z,4.72
2023-11-30T04:19:29.057Z,4.76
2023-11-30T04:21:55.505Z,4.76
2023-11-30T04:24:22.182Z,4.77
2023-11-30T04:26:48.737Z,4.80
2023-11-30T04:29:15.321Z,4.85
2023-11-30T04:31:41.773Z,4.90
2023-11-30T04:34:09.659Z,4.82
2023-11-30T04:36:36.426Z,4.74
2023-11-30T04:39:03.081Z,4.75
2023-11-30T04:41:29.710Z,4.71
2023-11-30T04:43:56.189Z,4.72
2023-11-30T04:46:22.837Z,4.73
2023-11-30T04:48:49.422Z,4.68
2023-11-30T04:51:15.979Z,4.59
2023-11-30T04:53:42.445Z,4.52
2023-11-30T04:56:09.212Z,4.58
2023-11-30T04:58:35.681Z,4.58
2023-11-30T05:01:02.141Z,4.55
2023-11-30T05:03:28.906Z,4.60
2023-11-30T05:05:55.656Z,4.54
2023-11-30T05:08:22.167Z,4.63
2023-11-30T05:10:48.664Z,4.69
2023-11-30T05:13:15.411Z,4.64
2023-11-30T05:15:42.163Z,4.59
2023-11-30T05:18:09.368Z,4.57
2023-11-30T05:20:36.314Z,4.61
2023-11-30T05:23:02.927Z,4.63
2023-11-30T05:25:30.141Z,4.63
2023-11-30T05:27:58.870Z,4.64
2023-11-30T05:30:28.948Z,4.64
2023-11-30T05:32:55.611Z,4.56
2023-11-30T05:35:23.942Z,4.54
2023-11-30T05:37:50.576Z,4.58
2023-11-30T05:40:20.806Z,4.52
2023-11-30T05:42:48.449Z,4.51
2023-11-30T05:45:15.030Z,4.54
2023-11-30T05:47:41.609Z,4.56
2023-11-30T05:50:08.595Z,4.53
2023-11-30T05:52:35.064Z,4.53
2023-11-30T05:55:01.826Z,4.55
2023-11-30T05:57:28.340Z,4.50
2023-11-30T05:59:54.811Z,4.48
2023-11-30T06:02:22.824Z,4.33
2023-11-30T06:04:51.513Z,4.31
2023-11-30T06:07:18.497Z,4.35
2023-11-30T06:09:45.080Z,4.38
2023-11-30T06:12:12.237Z,4.45
2023-11-30T06:14:38.997Z,4.52
2023-11-30T06:17:05.456Z,4.50
2023-11-30T06:19:32.431Z,4.55
2023-11-30T06:21:58.905Z,4.54
2023-11-30T06:24:27.444Z,4.50
2023-11-30T06:26:54.570Z,4.48
2023-11-30T06:29:21.112Z,4.39
2023-11-30T06:31:47.573Z,4.30
2023-11-30T06:34:14.158Z,4.28
2023-11-30T06:36:40.621Z,4.32
2023-11-30T06:39:07.103Z,4.27
2023-11-30T06:41:33.563Z,4.30
2023-11-30T06:44:00.193Z,4.34
2023-11-30T06:46:26.733Z,4.25
2023-11-30T06:48:53.300Z,4.24
2023-11-30T06:51:19.831Z,4.21
2023-11-30T06:53:46.516Z,4.22
2023-11-30T06:56:13.411Z,4.24
2023-11-30T06:58:40.505Z,4.27
2023-11-30T07:01:13.299Z,4.32
2023-11-30T07:03:42.883Z,4.33
2023-11-30T07:06:10.826Z,4.26
2023-11-30T07:08:37.531Z,4.25
2023-11-30T07:11:08.511Z,4.32
2023-11-30T07:13:35.026Z,4.33
2023-11-30T07:16:01.616Z,4.31
2023-11-30T07:18:28.433Z,4.32
2023-11-30T07:20:54.937Z,4.32
2023-11-30T07:23:21.396Z,4.37
2023-11-30T07:25:47.968Z,4.36
2023-11-30T07:28:14.424Z,4.37
2023-11-30T07:30:43.279Z,4.34
2023-11-30T07:33:10.944Z,4.28
2023-11-30T07:35:38.554Z,4.33
2023-11-30T07:38:05.707Z,4.38
2023-11-30T07:40:35.248Z,4.37
2023-11-30T07:43:02.060Z,4.37
2023-11-30T07:45:31.051Z,4.32
2023-11-30T07:47:58.632Z,4.32
2023-11-30T07:50:28.301Z,4.34
2023-11-30T07:52:54.938Z,4.33
2023-11-30T07:55:21.599Z,4.29
2023-11-30T07:57:49.081Z,4.31
2023-11-30T08:00:16.543Z,4.33
2023-11-30T08:02:44.106Z,4.38
2023-11-30T08:05:13.521Z,4.34
2023-11-30T08:07:40.108Z,4.33
2023-11-30T08:10:07.496Z,4.31
2023-11-30T08:12:34.197Z,4.26
2023-11-30T08:15:00.853Z,4.22
2023-11-30T08:17:27.421Z,4.18
2023-11-30T08:19:53.939Z,4.09
2023-11-30T08:22:20.365Z,4.06
2023-11-30T08:24:46.868Z,3.94
2023-11-30T08:27:13.518Z,3.80
2023-11-30T08:29:40.086Z,3.85
2023-11-30T08:32:06.848Z,3.87
2023-11-30T08:34:33.436Z,3.85
2023-11-30T08:37:01.100Z,3.92
2023-11-30T08:39:29.750Z,4.03
2023-11-30T08:41:56.472Z,4.00
2023-11-30T08:44:24.125Z,3.90
2023-11-30T08:46:51.324Z,3.83
2023-11-30T08:49:18.399Z,3.86
2023-11-30T08:51:45.937Z,3.94
2023-11-30T08:54:12.859Z,3.86
2023-11-30T08:56:39.378Z,3.83
2023-11-30T08:59:05.844Z,3.80
2023-11-30T09:01:33.739Z,3.81
2023-11-30T09:04:04.885Z,3.79
2023-11-30T09:06:34.106Z,3.72
2023-11-30T09:09:01.193Z,3.82
2023-11-30T09:11:31.048Z,3.85
2023-11-30T09:13:58.591Z,3.85
2023-11-30T09:16:26.608Z,3.82
2023-11-30T09:18:56.064Z,3.84
2023-11-30T09:21:24.173Z,3.79
2023-11-30T09:23:51.974Z,3.79
2023-11-30T09:26:21.747Z,3.84
2023-11-30T09:28:48.666Z,3.89
2023-11-30T09:31:15.247Z,3.90
2023-11-30T09:33:41.746Z,3.82
2023-11-30T09:36:09.139Z,3.84
2023-11-30T09:38:35.681Z,3.85
2023-11-30T09:41:09.425Z,3.81
2023-11-30T09:43:36.453Z,3.84
2023-11-30T09:46:03.052Z,3.82
2023-11-30T09:48:29.795Z,3.87
2023-11-30T09:50:56.618Z,3.85
2023-11-30T09:53:23.468Z,3.77
2023-11-30T09:55:50.239Z,3.91
2023-11-30T09:58:17.045Z,3.77
2023-11-30T10:00:43.650Z,3.71
2023-11-30T10:03:10.402Z,3.93
2023-11-30T10:05:37.047Z,4.07
2023-11-30T10:08:04.131Z,4.07
2023-11-30T10:10:30.926Z,4.03
2023-11-30T10:12:57.519Z,4.05
2023-11-30T10:15:24.379Z,4.03
2023-11-30T10:17:51.115Z,4.08
2023-11-30T10:20:19.881Z,4.13
2023-11-30T10:22:46.848Z,4.18
2023-11-30T10:25:14.081Z,4.16
2023-11-30T10:27:42.249Z,4.07
2023-11-30T10:30:12.417Z,4.13
2023-11-30T10:32:40.742Z,4.22
2023-11-30T10:35:12.973Z,4.24
2023-11-30T10:37:51.706Z,4.24
2023-11-30T10:40:19.316Z,4.31
2023-11-30T10:42:52.660Z,4.36
2023-11-30T10:45:22.109Z,4.34
2023-11-30T10:47:50.267Z,4.32
2023-11-30T10:50:19.587Z,4.38
2023-11-30T10:52:47.013Z,4.37
2023-11-30T10:55:17.405Z,4.35
2023-11-30T10:57:44.959Z,4.36
2023-11-30T11:00:13.593Z,4.26
2023-11-30T11:02:45.881Z,4.25
2023-11-30T11:05:16.552Z,4.25
2023-11-30T11:07:52.866Z,4.24
2023-11-30T11:10:35.995Z,4.24
2023-11-30T11:13:03.288Z,4.27
2023-11-30T11:15:31.110Z,4.34
2023-11-30T11:18:04.790Z,4.38
2023-11-30T11:20:33.413Z,4.35
2023-11-30T11:23:05.936Z,4.25
2023-11-30T11:25:47.518Z,4.31
2023-11-30T11:28:18.059Z,4.27
2023-11-30T11:30:47.952Z,4.25
2023-11-30T11:33:19.157Z,4.31
2023-11-30T11:35:46.507Z,4.34
2023-11-30T11:38:12.984Z,4.40
2023-11-30T11:40:40.592Z,4.38
2023-11-30T11:43:07.392Z,4.39
2023-11-30T11:45:34.511Z,4.29
2023-11-30T11:48:02.624Z,4.34
2023-11-30T11:50:29.429Z,4.36
2023-11-30T11:53:04.494Z,4.39
2023-11-30T11:55:31.848Z,4.50
2023-11-30T11:57:58.544Z,4.43
2023-11-30T12:00:25.642Z,4.44
2023-11-30T12:02:53.177Z,4.44
2023-11-30T12:05:25.975Z,4.44
2023-11-30T12:08:00.705Z,4.43
2023-11-30T12:10:40.178Z,4.44
2023-11-30T12:13:16.339Z,4.36
2023-11-30T12:15:43.626Z,4.42
2023-11-30T12:18:11.378Z,4.48
2023-11-30T12:20:39.052Z,4.43
2023-11-30T12:23:05.734Z,4.38
2023-11-30T12:25:32.270Z,4.36
2023-11-30T12:27:58.832Z,4.33
2023-11-30T12:30:25.918Z,4.40
2023-11-30T12:32:52.744Z,4.38
2023-11-30T12:35:19.370Z,4.37
2023-11-30T12:37:45.884Z,4.44
2023-11-30T12:40:14.562Z,4.48
2023-11-30T12:42:44.966Z,4.49
2023-11-30T12:45:12.443Z,4.46
2023-11-30T12:47:41.592Z,4.45
2023-11-30T12:50:10.149Z,4.47
2023-11-30T12:52:36.674Z,4.45
2023-11-30T12:55:05.268Z,4.50
2023-11-30T12:57:35.273Z,4.48
2023-11-30T13:00:03.215Z,4.47
2023-11-30T13:02:29.989Z,4.51
2023-11-30T13:04:57.773Z,4.53
2023-11-30T13:07:24.684Z,4.61
2023-11-30T13:09:51.329Z,4.56
2023-11-30T13:12:17.939Z,4.50
2023-11-30T13:14:44.770Z,4.50
2023-11-30T13:17:11.498Z,4.54
2023-11-30T13:19:38.108Z,4.54
2023-11-30T13:22:04.702Z,4.60
2023-11-30T13:24:31.228Z,4.60
2023-11-30T13:26:57.740Z,4.54
2023-11-30T13:29:24.268Z,4.56
2023-11-30T13:31:50.784Z,4.65
2023-11-30T13:34:17.238Z,4.67
2023-11-30T13:36:43.916Z,4.64
2023-11-30T13:39:11.305Z,4.55
2023-11-30T13:41:37.914Z,4.52
2023-11-30T13:44:06.113Z,4.55
2023-11-30T13:46:32.952Z,4.52
2023-11-30T13:48:59.927Z,4.57
2023-11-30T13:51:26.407Z,4.62
2023-11-30T13:53:52.910Z,4.65
2023-11-30T13:56:22.461Z,4.66
2023-11-30T13:58:49.513Z,4.72
2023-11-30T14:01:16.914Z,4.76
2023-11-30T14:03:43.733Z,4.68
2023-11-30T14:06:11.116Z,4.58
2023-11-30T14:08:38.066Z,4.51
2023-11-30T14:11:10.044Z,4.60
2023-11-30T14:13:38.074Z,4.60
2023-11-30T14:16:06.011Z,4.51
2023-11-30T14:18:32.516Z,4.52
2023-11-30T14:21:00.559Z,4.49
2023-11-30T14:23:28.147Z,4.47
2023-11-30T14:25:54.726Z,4.51
2023-11-30T14:28:22.498Z,4.56
2023-11-30T14:30:49.159Z,4.64
2023-11-30T14:33:15.691Z,4.69
2023-11-30T14:35:42.332Z,4.68
2023-11-30T14:38:08.892Z,4.65
2023-11-30T14:40:35.351Z,4.65
2023-11-30T14:43:01.894Z,4.68
2023-11-30T14:45:28.451Z,4.68
2023-11-30T14:47:55.037Z,4.65
2023-11-30T14:50:21.701Z,4.69
2023-11-30T14:52:48.198Z,4.65
2023-11-30T14:55:15.017Z,4.65
2023-11-30T14:57:44.867Z,4.65
2023-11-30T15:00:13.516Z,4.71
2023-11-30T15:02:42.324Z,4.76
2023-11-30T15:05:11.471Z,4.64
2023-11-30T15:07:38.859Z,4.66
2023-11-30T15:10:06.140Z,4.69
2023-11-30T15:12:32.811Z,4.67
2023-11-30T15:14:59.438Z,4.61
2023-11-30T15:17:26.105Z,4.64
2023-11-30T15:19:54.528Z,4.65
2023-11-30T15:22:21.272Z,4.68
2023-11-30T15:24:47.858Z,4.69
2023-11-30T15:27:14.454Z,4.70
2023-11-30T15:29:41.016Z,4.68
2023-11-30T15:32:07.896Z,4.62
2023-11-30T15:34:34.415Z,4.65
2023-11-30T15:37:00.919Z,4.69
2023-11-30T15:39:27.438Z,4.67
2023-11-30T15:41:54.008Z,4.68
2023-11-30T15:44:20.453Z,4.71
2023-11-30T15:46:47.307Z,4.65
2023-11-30T15:49:14.384Z,4.58
2023-11-30T15:51:42.012Z,4.61
2023-11-30T15:54:09.115Z,4.74
2023-11-30T15:56:35.905Z,4.74
2023-11-30T15:59:04.056Z,4.65
2023-11-30T16:01:32.030Z,4.61
2023-11-30T16:03:59.644Z,4.66
2023-11-30T16:06:27.069Z,4.65
2023-11-30T16:08:54.517Z,4.62
2023-11-30T16:11:21.212Z,4.62
2023-11-30T16:13:47.700Z,4.64
2023-11-30T16:16:14.200Z,4.68
2023-11-30T16:18:41.566Z,4.74
2023-11-30T16:21:19.212Z,4.79
2023-11-30T16:23:47.448Z,4.80
2023-11-30T16:26:21.828Z,4.76
2023-11-30T16:28:49.698Z,4.76
2023-11-30T16:31:16.374Z,4.79
2023-11-30T16:33:43.279Z,4.70
2023-11-30T16:36:10.966Z,4.69
2023-11-30T16:38:37.994Z,4.53
2023-11-30T16:41:04.875Z,4.59
2023-11-30T16:43:32.482Z,4.60
2023-11-30T16:45:59.139Z,4.65
2023-11-30T16:48:25.812Z,4.62
2023-11-30T16:50:52.305Z,4.59
2023-11-30T16:53:18.918Z,4.61
2023-11-30T16:55:46.421Z,4.65
2023-11-30T16:58:12.965Z,4.60
2023-11-30T17:00:40.331Z,4.60
2023-11-30T17:03:06.962Z,4.61
2023-11-30T17:05:33.462Z,4.60
2023-11-30T17:07:59.954Z,4.64
2023-11-30T17:10:26.378Z,4.68
2023-11-30T17:12:52.979Z,4.66
2023-11-30T17:15:19.604Z,4.64
2023-11-30T17:17:49.271Z,4.63
2023-11-30T17:20:16.404Z,4.64
2023-11-30T17:22:44.956Z,4.62
2023-11-30T17:25:11.431Z,4.65
2023-11-30T17:27:37.940Z,4.66
2023-11-30T17:30:05.459Z,4.67
2023-11-30T17:32:32.029Z,4.73
2023-11-30T17:34:58.825Z,4.61
2023-11-30T17:37:25.495Z,4.49
2023-11-30T17:39:52.089Z,4.43
2023-11-30T17:42:20.618Z,4.45
2023-11-30T17:44:47.163Z,4.58
2023-11-30T17:47:16.144Z,4.59
2023-11-30T17:49:43.807Z,4.66
2023-11-30T17:52:10.797Z,4.66
2023-11-30T17:54:37.356Z,4.56
2023-11-30T17:57:04.062Z,4.58
2023-11-30T17:59:30.504Z,4.65
2023-11-30T18:01:57.073Z,4.64
2023-11-30T18:04:23.622Z,4.66
2023-11-30T18:06:50.338Z,4.69
2023-11-30T18:09:16.939Z,4.71
2023-11-30T18:11:43.564Z,4.69
2023-11-30T18:14:10.659Z,4.73
2023-11-30T18:16:37.353Z,4.69
2023-11-30T18:19:04.181Z,4.73
2023-11-30T18:21:32.055Z,4.76
2023-11-30T18:23:58.662Z,4.73
2023-11-30T18:26:26.004Z,4.73
2023-11-30T18:28:53.955Z,4.70
2023-11-30T18:31:22.777Z,4.67
2023-11-30T18:33:50.799Z,4.65
2023-11-30T18:36:17.498Z,4.67
2023-11-30T18:38:50.407Z,4.63
2023-11-30T18:41:19.547Z,4.60
2023-11-30T18:43:46.091Z,4.61
2023-11-30T18:46:14.126Z,4.58
2023-11-30T18:48:40.664Z,4.51
2023-11-30T18:51:07.636Z,4.47
2023-11-30T18:53:34.818Z,4.58
2023-11-30T18:56:01.847Z,4.52
2023-11-30T18:58:28.596Z,4.48
2023-11-30T19:00:57.732Z,4.53
2023-11-30T19:03:24.367Z,4.56
2023-11-30T19:05:51.007Z,4.56
2023-11-30T19:08:17.756Z,4.50
2023-11-30T19:10:44.274Z,4.52
2023-11-30T19:13:11.643Z,4.55
2023-11-30T19:15:42.286Z,4.56
2023-11-30T19:18:09.862Z,4.56
2023-11-30T19:20:38.509Z,4.58
2023-11-30T19:23:05.144Z,4.54
2023-11-30T19:25:31.642Z,4.63
2023-11-30T19:27:58.219Z,4.61
2023-11-30T19:30:24.841Z,4.60
2023-11-30T19:32:52.192Z,4.61
2023-11-30T19:35:19.681Z,4.59
2023-11-30T19:37:46.249Z,4.52
2023-11-30T19:40:13.018Z,4.51
2023-11-30T19:42:39.480Z,4.52
2023-11-30T19:45:06.533Z,4.56
2023-11-30T19:47:33.340Z,4.56
2023-11-30T19:50:01.011Z,4.61
2023-11-30T19:52:27.734Z,4.66
2023-11-30T19:54:54.270Z,4.68
2023-11-30T19:57:20.858Z,4.61
2023-11-30T19:59:47.312Z,4.61
2023-11-30T20:02:13.871Z,4.53
2023-11-30T20:04:40.320Z,4.53
2023-11-30T20:07:06.961Z,4.54
2023-11-30T20:09:34.539Z,4.52
2023-11-30T20:12:01.025Z,4.52
2023-11-30T20:14:27.562Z,4.47
2023-11-30T20:16:54.036Z,4.50
2023-11-30T20:19:20.585Z,4.51
2023-11-30T20:21:47.114Z,4.43
2023-11-30T20:24:13.562Z,4.43
2023-11-30T20:26:41.654Z,4.46
2023-11-30T20:29:09.068Z,4.54
2023-11-30T20:31:35.609Z,4.50
2023-11-30T20:34:03.978Z,4.48
2023-11-30T20:36:30.729Z,4.53
2023-11-30T20:38:57.378Z,4.43
2023-11-30T20:41:25.402Z,4.50
2023-11-30T20:43:54.127Z,4.45
2023-11-30T20:46:21.392Z,4.50
2023-11-30T20:48:48.486Z,4.58
2023-11-30T20:51:18.520Z,4.50
2023-11-30T20:53:45.817Z,4.47
2023-11-30T20:56:12.473Z,4.47
2023-11-30T20:58:39.766Z,4.52
2023-11-30T21:01:06.757Z,4.52
2023-11-30T21:03:33.469Z,4.59
2023-11-30T21:06:01.879Z,4.65
2023-11-30T21:08:28.747Z,4.56
2023-11-30T21:10:55.201Z,4.54
2023-11-30T21:13:22.591Z,4.57
2023-11-30T21:15:49.285Z,4.63
2023-11-30T21:18:15.909Z,4.60
2023-11-30T21:20:42.389Z,4.65
2023-11-30T21:23:09.175Z,4.67
2023-11-30T21:25:35.628Z,4.61
2023-11-30T21:28:02.205Z,4.64
2023-11-30T21:30:28.835Z,4.60
2023-11-30T21:32:55.384Z,4.59
2023-11-30T21:35:21.843Z,4.66
2023-11-30T21:37:48.314Z,4.66
2023-11-30T21:40:14.920Z,4.65
2023-11-30T21:42:41.517Z,4.59
2023-11-30T21:45:08.203Z,4.55
2023-11-30T21:47:36.380Z,4.59
2023-11-30T21:50:18.783Z,4.63
2023-11-30T21:52:47.596Z,4.64
2023-11-30T21:55:18.202Z,4.68
2023-11-30T21:57:48.672Z,4.73
2023-11-30T22:00:16.929Z,4.73
2023-11-30T22:02:47.571Z,4.68
2023-11-30T22:05:23.568Z,4.64
2023-11-30T22:07:53.766Z,4.60
2023-11-30T22:10:20.275Z,4.58
2023-11-30T22:12:46.733Z,4.62
2023-11-30T22:15:14.010Z,4.63
2023-11-30T22:17:40.539Z,4.64
2023-11-30T22:20:09.015Z,4.70
2023-11-30T22:22:35.635Z,4.70
2023-11-30T22:25:02.339Z,4.70
2023-11-30T22:27:28.881Z,4.74
2023-11-30T22:29:55.385Z,4.73
2023-11-30T22:32:22.544Z,4.77
2023-11-30T22:34:49.043Z,4.77
2023-11-30T22:37:15.633Z,4.71
2023-11-30T22:39:43.716Z,4.76
2023-11-30T22:42:10.320Z,4.72
2023-11-30T22:44:36.856Z,4.67
2023-11-30T22:47:03.889Z,4.65
2023-11-30T22:49:30.521Z,4.68
2023-11-30T22:51:57.826Z,4.66
2023-11-30T22:54:24.427Z,4.72
2023-11-30T22:56:51.383Z,4.73
2023-11-30T22:59:18.694Z,4.77
2023-11-30T23:01:45.725Z,4.81
2023-11-30T23:04:13.877Z,4.76
2023-11-30T23:06:41.441Z,4.69
2023-11-30T23:09:08.019Z,4.72
2023-11-30T23:11:34.494Z,4.65
2023-11-30T23:14:01.033Z,4.73
2023-11-30T23:16:28.167Z,4.75
2023-11-30T23:18:54.803Z,4.74
2023-11-30T23:21:21.309Z,4.77
2023-11-30T23:23:47.794Z,4.81
2023-11-30T23:26:14.278Z,4.84
2023-11-30T23:28:40.836Z,4.89
2023-11-30T23:31:07.453Z,4.90
2023-11-30T23:33:34.177Z,4.80
2023-11-30T23:36:00.682Z,4.81
2023-11-30T23:38:28.149Z,4.84
2023-11-30T23:40:54.610Z,4.84
2023-11-30T23:43:21.123Z,4.78
2023-11-30T23:45:47.589Z,4.79
2023-11-30T23:48:14.177Z,4.80
2023-11-30T23:50:40.647Z,4.74
2023-11-30T23:53:07.142Z,4.66
2023-11-30T23:55:33.591Z,4.76
2023-11-30T23:58:00.104Z,4.81
